sensor_id;sensor_type;location;lat;lon;timestamp;pressure;altitude;pressure_sealevel;temperature;humidity
76424;BME280;65257;52.104;4.268;2023-04-15T00:00:52;100794.69;;;10.13;100.00
76424;BME280;65257;52.104;4.268;2023-04-15T00:03:17;100801.66;;;10.17;100.00
76424;BME280;65257;52.104;4.268;2023-04-15T00:05:43;100798.16;;;10.15;100.00
76424;BME280;65257;52.104;4.268;2023-04-15T00:08:15;100797.81;;;10.06;100.00
76424;BME280;65257;52.104;4.268;2023-04-15T00:10:43;100790.19;;;10.07;100.00
76424;BME280;65257;52.104;4.268;2023-04-15T00:13:10;100798.78;;;10.09;100.00
76424;BME280;65257;52.104;4.268;2023-04-15T00:15:36;100795.19;;;10.04;100.00
76424;BME280;65257;52.104;4.268;2023-04-15T00:18:02;100795.75;;;9.96;100.00
76424;BME280;65257;52.104;4.268;2023-04-15T00:20:28;100800.94;;;9.99;100.00
76424;BME280;65257;52.104;4.268;2023-04-15T00:22:54;100798.34;;;9.97;100.00
76424;BME280;65257;52.104;4.268;2023-04-15T00:25:26;100796.50;;;9.93;100.00
76424;BME280;65257;52.104;4.268;2023-04-15T00:27:51;100802.47;;;9.94;100.00
76424;BME280;65257;52.104;4.268;2023-04-15T00:30:20;100800.38;;;9.84;100.00
76424;BME280;65257;52.104;4.268;2023-04-15T00:32:45;100798.88;;;9.89;100.00
76424;BME280;65257;52.104;4.268;2023-04-15T00:35:14;100800.47;;;9.85;100.00
76424;BME280;65257;52.104;4.268;2023-04-15T00:37:39;100797.78;;;9.82;100.00
76424;BME280;65257;52.104;4.268;2023-04-15T00:40:14;100808.66;;;9.77;100.00
76424;BME280;65257;52.104;4.268;2023-04-15T00:42:50;100806.31;;;9.61;100.00
76424;BME280;65257;52.104;4.268;2023-04-15T00:45:27;100805.34;;;9.57;100.00
76424;BME280;65257;52.104;4.268;2023-04-15T00:47:53;100818.28;;;9.62;100.00
76424;BME280;65257;52.104;4.268;2023-04-15T00:50:18;100809.47;;;9.54;100.00
76424;BME280;65257;52.104;4.268;2023-04-15T00:52:44;100813.75;;;9.55;100.00
76424;BME280;65257;52.104;4.268;2023-04-15T00:55:09;100812.84;;;9.53;100.00
76424;BME280;65257;52.104;4.268;2023-04-15T00:57:35;100809.91;;;9.43;100.00
76424;BME280;65257;52.104;4.268;2023-04-15T01:00:07;100817.81;;;9.50;100.00
76424;BME280;65257;52.104;4.268;2023-04-15T01:02:36;100814.84;;;9.61;100.00
76424;BME280;65257;52.104;4.268;2023-04-15T01:05:02;100811.22;;;9.55;100.00
76424;BME280;65257;52.104;4.268;2023-04-15T01:07:33;100811.09;;;9.52;100.00
76424;BME280;65257;52.104;4.268;2023-04-15T01:09:59;100815.31;;;9.51;100.00
76424;BME280;65257;52.104;4.268;2023-04-15T01:12:26;100823.84;;;9.52;100.00
76424;BME280;65257;52.104;4.268;2023-04-15T01:15:01;100821.19;;;9.49;100.00
76424;BME280;65257;52.104;4.268;2023-04-15T01:17:26;100813.41;;;9.45;100.00
76424;BME280;65257;52.104;4.268;2023-04-15T01:20:18;100814.31;;;9.48;100.00
76424;BME280;65257;52.104;4.268;2023-04-15T01:22:47;100813.50;;;9.49;100.00
76424;BME280;65257;52.104;4.268;2023-04-15T01:25:33;100813.50;;;9.49;100.00
76424;BME280;65257;52.104;4.268;2023-04-15T01:28:06;100810.84;;;9.45;100.00
76424;BME280;65257;52.104;4.268;2023-04-15T01:30:34;100809.03;;;9.43;100.00
76424;BME280;65257;52.104;4.268;2023-04-15T01:32:59;100807.50;;;9.47;100.00
76424;BME280;65257;52.104;4.268;2023-04-15T01:35:25;100812.59;;;9.47;100.00
76424;BME280;65257;52.104;4.268;2023-04-15T01:37:52;100805.72;;;9.45;100.00
76424;BME280;65257;52.104;4.268;2023-04-15T01:40:19;100808.25;;;9.44;100.00
76424;BME280;65257;52.104;4.268;2023-04-15T01:42:45;100811.72;;;9.46;100.00
76424;BME280;65257;52.104;4.268;2023-04-15T01:45:11;100812.59;;;9.47;100.00
76424;BME280;65257;52.104;4.268;2023-04-15T01:47:37;100807.31;;;9.42;100.00
76424;BME280;65257;52.104;4.268;2023-04-15T01:50:05;100817.44;;;9.40;100.00
76424;BME280;65257;52.104;4.268;2023-04-15T01:52:31;100815.81;;;9.42;100.00
76424;BME280;65257;52.104;4.268;2023-04-15T01:54:57;100818.19;;;9.38;100.00
76424;BME280;65257;52.104;4.268;2023-04-15T01:57:22;100816.47;;;9.37;100.00
76424;BME280;65257;52.104;4.268;2023-04-15T01:59:47;100815.59;;;9.36;100.00
76424;BME280;65257;52.104;4.268;2023-04-15T02:02:13;100810.38;;;9.33;100.00
76424;BME280;65257;52.104;4.268;2023-04-15T02:04:40;100813.06;;;9.36;100.00
76424;BME280;65257;52.104;4.268;2023-04-15T02:07:05;100814.72;;;9.36;100.00
76424;BME280;65257;52.104;4.268;2023-04-15T02:09:31;100814.59;;;9.33;100.00
76424;BME280;65257;52.104;4.268;2023-04-15T02:11:59;100823.94;;;9.32;100.00
76424;BME280;65257;52.104;4.268;2023-04-15T02:14:25;100832.28;;;9.28;100.00
76424;BME280;65257;52.104;4.268;2023-04-15T02:16:51;100831.41;;;9.28;100.00
76424;BME280;65257;52.104;4.268;2023-04-15T02:19:19;100821.81;;;9.22;100.00
76424;BME280;65257;52.104;4.268;2023-04-15T02:21:45;100830.44;;;9.24;100.00
76424;BME280;65257;52.104;4.268;2023-04-15T02:24:16;100825.34;;;9.24;100.00
76424;BME280;65257;52.104;4.268;2023-04-15T02:26:41;100830.31;;;9.21;100.00
76424;BME280;65257;52.104;4.268;2023-04-15T02:29:06;100826.72;;;9.16;100.00
76424;BME280;65257;52.104;4.268;2023-04-15T02:31:32;100833.66;;;9.20;100.00
76424;BME280;65257;52.104;4.268;2023-04-15T02:34:01;100833.53;;;9.17;100.00
76424;BME280;65257;52.104;4.268;2023-04-15T02:36:31;100840.41;;;9.18;100.00
76424;BME280;65257;52.104;4.268;2023-04-15T02:38:57;100840.53;;;9.21;100.00
76424;BME280;65257;52.104;4.268;2023-04-15T02:41:25;100843.00;;;9.20;100.00
76424;BME280;65257;52.104;4.268;2023-04-15T02:43:52;100849.69;;;9.16;100.00
76424;BME280;65257;52.104;4.268;2023-04-15T02:46:18;100847.97;;;9.17;100.00
76424;BME280;65257;52.104;4.268;2023-04-15T02:48:43;100851.97;;;9.10;100.00
76424;BME280;65257;52.104;4.268;2023-04-15T02:51:12;100854.09;;;9.00;100.00
76424;BME280;65257;52.104;4.268;2023-04-15T02:53:38;100866.03;;;9.01;100.00
76424;BME280;65257;52.104;4.268;2023-04-15T02:56:03;100852.97;;;8.93;100.00
76424;BME280;65257;52.104;4.268;2023-04-15T02:58:30;100868.00;;;8.87;100.00
76424;BME280;65257;52.104;4.268;2023-04-15T03:00:55;100866.81;;;8.79;100.00
76424;BME280;65257;52.104;4.268;2023-04-15T03:03:24;100867.75;;;8.81;100.00
76424;BME280;65257;52.104;4.268;2023-04-15T03:05:52;100863.75;;;8.67;100.00
76424;BME280;65257;52.104;4.268;2023-04-15T03:08:20;100868.84;;;8.67;100.00
76424;BME280;65257;52.104;4.268;2023-04-15T03:10:51;100869.00;;;8.70;100.00
76424;BME280;65257;52.104;4.268;2023-04-15T03:13:18;100873.69;;;8.80;100.00
76424;BME280;65257;52.104;4.268;2023-04-15T03:15:46;100868.72;;;8.64;100.00
76424;BME280;65257;52.104;4.268;2023-04-15T03:18:12;100870.19;;;8.59;100.00
76424;BME280;65257;52.104;4.268;2023-04-15T03:20:38;100870.75;;;8.52;100.00
76424;BME280;65257;52.104;4.268;2023-04-15T03:23:03;100876.78;;;8.54;100.00
76424;BME280;65257;52.104;4.268;2023-04-15T03:25:29;100881.00;;;8.53;100.00
76424;BME280;65257;52.104;4.268;2023-04-15T03:27:55;100885.81;;;8.66;100.00
76424;BME280;65257;52.104;4.268;2023-04-15T03:30:20;100885.50;;;8.59;100.00
76424;BME280;65257;52.104;4.268;2023-04-15T03:32:46;100886.25;;;8.56;100.00
76424;BME280;65257;52.104;4.268;2023-04-15T03:35:11;100885.50;;;8.59;100.00
76424;BME280;65257;52.104;4.268;2023-04-15T03:37:37;100898.66;;;8.49;100.00
76424;BME280;65257;52.104;4.268;2023-04-15T03:40:02;100905.50;;;8.50;100.00
76424;BME280;65257;52.104;4.268;2023-04-15T03:42:28;100903.63;;;8.46;100.00
76424;BME280;65257;52.104;4.268;2023-04-15T03:44:59;100911.13;;;8.43;100.00
76424;BME280;65257;52.104;4.268;2023-04-15T03:47:25;100913.66;;;8.43;100.00
76424;BME280;65257;52.104;4.268;2023-04-15T03:49:50;100918.38;;;8.34;100.00
76424;BME280;65257;52.104;4.268;2023-04-15T03:52:16;100919.00;;;8.30;100.00
76424;BME280;65257;52.104;4.268;2023-04-15T03:54:42;100925.94;;;8.32;100.00
76424;BME280;65257;52.104;4.268;2023-04-15T03:57:07;100921.56;;;8.30;100.00
76424;BME280;65257;52.104;4.268;2023-04-15T03:59:32;100921.47;;;8.27;100.00
76424;BME280;65257;52.104;4.268;2023-04-15T04:02:01;100934.66;;;8.19;100.00
76424;BME280;65257;52.104;4.268;2023-04-15T04:04:26;100925.22;;;8.17;100.00
76424;BME280;65257;52.104;4.268;2023-04-15T04:06:52;100932.78;;;8.15;100.00
76424;BME280;65257;52.104;4.268;2023-04-15T04:09:17;100932.50;;;8.09;100.00
76424;BME280;65257;52.104;4.268;2023-04-15T04:11:53;100935.34;;;8.15;100.00
76424;BME280;65257;52.104;4.268;2023-04-15T04:14:18;100944.31;;;8.07;100.00
76424;BME280;65257;52.104;4.268;2023-04-15T04:16:45;100951.28;;;8.11;100.00
76424;BME280;65257;52.104;4.268;2023-04-15T04:19:20;100949.41;;;8.07;100.00
76424;BME280;65257;52.104;4.268;2023-04-15T04:21:51;100952.63;;;8.03;100.00
76424;BME280;65257;52.104;4.268;2023-04-15T04:24:26;100957.72;;;8.03;100.00
76424;BME280;65257;52.104;4.268;2023-04-15T04:27:06;100955.06;;;8.02;100.00
76424;BME280;65257;52.104;4.268;2023-04-15T04:29:35;100961.06;;;8.02;100.00
76424;BME280;65257;52.104;4.268;2023-04-15T04:32:03;100966.72;;;7.97;100.00
76424;BME280;65257;52.104;4.268;2023-04-15T04:34:32;100970.81;;;7.93;100.00
76424;BME280;65257;52.104;4.268;2023-04-15T04:36:57;100972.28;;;7.88;100.00
76424;BME280;65257;52.104;4.268;2023-04-15T04:39:22;100977.22;;;7.85;100.00
76424;BME280;65257;52.104;4.268;2023-04-15T04:41:51;100978.06;;;7.86;100.00
76424;BME280;65257;52.104;4.268;2023-04-15T04:44:16;100982.00;;;7.79;100.00
76424;BME280;65257;52.104;4.268;2023-04-15T04:46:42;100983.63;;;7.77;100.00
76424;BME280;65257;52.104;4.268;2023-04-15T04:49:08;100993.72;;;7.76;100.00
76424;BME280;65257;52.104;4.268;2023-04-15T04:51:56;100999.84;;;7.79;100.00
76424;BME280;65257;52.104;4.268;2023-04-15T04:54:22;101009.09;;;7.77;100.00
76424;BME280;65257;52.104;4.268;2023-04-15T04:56:48;101006.53;;;7.77;100.00
76424;BME280;65257;52.104;4.268;2023-04-15T04:59:13;101009.09;;;7.77;100.00
76424;BME280;65257;52.104;4.268;2023-04-15T05:01:39;101006.59;;;7.79;100.00
76424;BME280;65257;52.104;4.268;2023-04-15T05:04:05;101016.72;;;7.77;100.00
76424;BME280;65257;52.104;4.268;2023-04-15T05:06:38;101014.19;;;7.77;100.00
76424;BME280;65257;52.104;4.268;2023-04-15T05:09:03;101024.22;;;7.74;100.00
76424;BME280;65257;52.104;4.268;2023-04-15T05:11:32;101024.66;;;7.83;100.00
76424;BME280;65257;52.104;4.268;2023-04-15T05:14:19;101025.69;;;7.87;100.00
76424;BME280;65257;52.104;4.268;2023-04-15T05:16:44;101034.34;;;7.90;100.00
76424;BME280;65257;52.104;4.268;2023-04-15T05:19:09;101042.94;;;7.92;100.00
76424;BME280;65257;52.104;4.268;2023-04-15T05:21:35;101038.63;;;7.91;100.00
76424;BME280;65257;52.104;4.268;2023-04-15T05:24:04;101052.41;;;7.95;100.00
76424;BME280;65257;52.104;4.268;2023-04-15T05:26:31;101059.47;;;8.00;100.00
76424;BME280;65257;52.104;4.268;2023-04-15T05:28:58;101056.97;;;8.02;100.00
76424;BME280;65257;52.104;4.268;2023-04-15T05:31:25;101066.19;;;7.98;100.00
76424;BME280;65257;52.104;4.268;2023-04-15T05:33:51;101071.53;;;8.04;100.00
76424;BME280;65257;52.104;4.268;2023-04-15T05:36:19;101072.59;;;8.08;100.00
76424;BME280;65257;52.104;4.268;2023-04-15T05:38:48;101080.75;;;8.18;100.00
76424;BME280;65257;52.104;4.268;2023-04-15T05:41:13;101085.84;;;8.18;100.00
76424;BME280;65257;52.104;4.268;2023-04-15T05:43:40;101085.19;;;8.23;100.00
76424;BME280;65257;52.104;4.268;2023-04-15T05:46:09;101101.59;;;8.28;100.00
76424;BME280;65257;52.104;4.268;2023-04-15T05:48:34;101096.66;;;8.31;100.00
76424;BME280;65257;52.104;4.268;2023-04-15T05:51:00;101105.53;;;8.39;100.00
76424;BME280;65257;52.104;4.268;2023-04-15T05:53:25;101113.34;;;8.42;100.00
76424;BME280;65257;52.104;4.268;2023-04-15T05:55:51;101121.25;;;8.48;100.00
76424;BME280;65257;52.104;4.268;2023-04-15T05:58:16;101129.59;;;8.44;100.00
76424;BME280;65257;52.104;4.268;2023-04-15T06:00:45;101127.97;;;8.46;100.00
76424;BME280;65257;52.104;4.268;2023-04-15T06:03:16;101138.16;;;8.63;100.00
76424;BME280;65257;52.104;4.268;2023-04-15T06:05:42;101139.50;;;8.73;100.00
76424;BME280;65257;52.104;4.268;2023-04-15T06:08:09;101143.13;;;8.78;100.00
76424;BME280;65257;52.104;4.268;2023-04-15T06:10:36;101140.28;;;8.72;100.00
76424;BME280;65257;52.104;4.268;2023-04-15T06:13:04;101154.91;;;8.76;100.00
76424;BME280;65257;52.104;4.268;2023-04-15T06:15:33;101161.94;;;8.80;100.00
76424;BME280;65257;52.104;4.268;2023-04-15T06:18:01;101168.53;;;8.94;100.00
76424;BME280;65257;52.104;4.268;2023-04-15T06:20:27;101172.69;;;8.92;100.00
76424;BME280;65257;52.104;4.268;2023-04-15T06:22:56;101180.28;;;9.08;100.00
76424;BME280;65257;52.104;4.268;2023-04-15T06:25:21;101187.41;;;9.15;100.00
76424;BME280;65257;52.104;4.268;2023-04-15T06:27:53;101192.66;;;9.18;100.00
76424;BME280;65257;52.104;4.268;2023-04-15T06:30:19;101193.06;;;9.27;100.00
76424;BME280;65257;52.104;4.268;2023-04-15T06:32:44;101207.59;;;9.48;100.00
76424;BME280;65257;52.104;4.268;2023-04-15T06:35:10;101196.03;;;9.94;100.00
76424;BME280;65257;52.104;4.268;2023-04-15T06:37:36;101193.91;;;10.63;100.00
76424;BME280;65257;52.104;4.268;2023-04-15T06:40:01;101206.44;;;11.21;100.00
76424;BME280;65257;52.104;4.268;2023-04-15T06:42:32;101212.13;;;11.80;100.00
76424;BME280;65257;52.104;4.268;2023-04-15T06:44:58;101212.13;;;12.04;100.00
76424;BME280;65257;52.104;4.268;2023-04-15T06:47:23;101205.91;;;12.48;100.00
76424;BME280;65257;52.104;4.268;2023-04-15T06:49:49;101219.66;;;12.75;100.00
76424;BME280;65257;52.104;4.268;2023-04-15T06:52:14;101222.50;;;13.09;100.00
76424;BME280;65257;52.104;4.268;2023-04-15T06:54:41;101220.22;;;13.18;100.00
76424;BME280;65257;52.104;4.268;2023-04-15T06:57:07;101224.69;;;13.54;100.00
76424;BME280;65257;52.104;4.268;2023-04-15T06:59:38;101230.38;;;13.72;100.00
76424;BME280;65257;52.104;4.268;2023-04-15T07:02:03;101224.97;;;14.25;100.00
76424;BME280;65257;52.104;4.268;2023-04-15T07:04:28;101230.63;;;14.12;100.00
76424;BME280;65257;52.104;4.268;2023-04-15T07:06:55;101234.66;;;14.67;100.00
76424;BME280;65257;52.104;4.268;2023-04-15T07:09:22;101236.50;;;15.07;100.00
76424;BME280;65257;52.104;4.268;2023-04-15T07:11:48;101238.59;;;14.87;100.00
76424;BME280;65257;52.104;4.268;2023-04-15T07:14:17;101241.28;;;14.56;100.00
76424;BME280;65257;52.104;4.268;2023-04-15T07:16:45;101236.31;;;14.99;100.00
76424;BME280;65257;52.104;4.268;2023-04-15T07:19:11;101246.75;;;15.42;100.00
76424;BME280;65257;52.104;4.268;2023-04-15T07:21:36;101255.00;;;15.26;100.00
76424;BME280;65257;52.104;4.268;2023-04-15T07:24:02;101258.75;;;15.03;100.00
76424;BME280;65257;52.104;4.268;2023-04-15T07:26:31;101260.47;;;15.41;100.00
76424;BME280;65257;52.104;4.268;2023-04-15T07:29:02;101271.84;;;15.87;100.00
76424;BME280;65257;52.104;4.268;2023-04-15T07:31:28;101267.34;;;16.20;100.00
76424;BME280;65257;52.104;4.268;2023-04-15T07:33:53;101269.56;;;16.02;100.00
76424;BME280;65257;52.104;4.268;2023-04-15T07:36:18;101284.81;;;16.81;100.00
76424;BME280;65257;52.104;4.268;2023-04-15T07:38:44;101285.19;;;17.02;100.00
76424;BME280;65257;52.104;4.268;2023-04-15T07:41:19;101290.50;;;16.60;100.00
76424;BME280;65257;52.104;4.268;2023-04-15T07:43:48;101297.13;;;16.48;100.00
76424;BME280;65257;52.104;4.268;2023-04-15T07:46:14;101298.28;;;17.13;100.00
76424;BME280;65257;52.104;4.268;2023-04-15T07:48:42;101298.31;;;17.71;100.00
76424;BME280;65257;52.104;4.268;2023-04-15T07:51:08;101298.66;;;17.37;100.00
76424;BME280;65257;52.104;4.268;2023-04-15T07:53:34;101306.69;;;17.00;100.00
76424;BME280;65257;52.104;4.268;2023-04-15T07:56:04;101312.13;;;16.67;100.00
76424;BME280;65257;52.104;4.268;2023-04-15T07:58:29;101313.66;;;17.05;100.00
76424;BME280;65257;52.104;4.268;2023-04-15T08:00:55;101321.78;;;16.77;100.00
76424;BME280;65257;52.104;4.268;2023-04-15T08:03:21;101323.44;;;17.23;100.00
76424;BME280;65257;52.104;4.268;2023-04-15T08:05:56;101331.00;;;17.11;100.00
76424;BME280;65257;52.104;4.268;2023-04-15T08:08:22;101338.09;;;17.24;100.00
76424;BME280;65257;52.104;4.268;2023-04-15T08:10:49;101338.13;;;18.47;100.00
76424;BME280;65257;52.104;4.268;2023-04-15T08:13:15;101336.06;;;19.00;100.00
76424;BME280;65257;52.104;4.268;2023-04-15T08:15:52;101346.81;;;18.50;100.00
76424;BME280;65257;52.104;4.268;2023-04-15T08:18:18;101350.22;;;18.48;100.00
76424;BME280;65257;52.104;4.268;2023-04-15T08:20:43;101352.47;;;18.21;100.00
76424;BME280;65257;52.104;4.268;2023-04-15T08:23:09;101355.22;;;17.67;100.00
76424;BME280;65257;52.104;4.268;2023-04-15T08:25:41;101353.03;;;17.97;100.00
76424;BME280;65257;52.104;4.268;2023-04-15T08:28:07;101360.38;;;18.33;100.00
76424;BME280;65257;52.104;4.268;2023-04-15T08:30:33;101362.84;;;18.22;100.00
76424;BME280;65257;52.104;4.268;2023-04-15T08:33:01;101362.78;;;18.91;100.00
76424;BME280;65257;52.104;4.268;2023-04-15T08:35:27;101366.13;;;18.81;100.00
76424;BME280;65257;52.104;4.268;2023-04-15T08:37:53;101374.31;;;19.25;100.00
76424;BME280;65257;52.104;4.268;2023-04-15T08:40:20;101376.84;;;19.17;100.00
76424;BME280;65257;52.104;4.268;2023-04-15T08:42:51;101381.91;;;18.29;100.00
76424;BME280;65257;52.104;4.268;2023-04-15T08:45:25;101391.25;;;18.14;100.00
76424;BME280;65257;52.104;4.268;2023-04-15T08:47:55;101396.44;;;18.16;100.00
76424;BME280;65257;52.104;4.268;2023-04-15T08:50:24;101400.47;;;18.59;100.00
76424;BME280;65257;52.104;4.268;2023-04-15T08:52:53;101399.69;;;18.66;100.00
76424;BME280;65257;52.104;4.268;2023-04-15T08:55:27;101420.38;;;18.61;100.00
76424;BME280;65257;52.104;4.268;2023-04-15T08:57:55;101415.75;;;17.78;100.00
76424;BME280;65257;52.104;4.268;2023-04-15T09:00:21;101422.69;;;17.80;100.00
76424;BME280;65257;52.104;4.268;2023-04-15T09:02:47;101419.50;;;17.44;100.00
76424;BME280;65257;52.104;4.268;2023-04-15T09:05:13;101418.91;;;17.59;100.00
76424;BME280;65257;52.104;4.268;2023-04-15T09:07:41;101428.81;;;17.85;100.00
76424;BME280;65257;52.104;4.268;2023-04-15T09:10:16;101427.09;;;17.87;100.00
76424;BME280;65257;52.104;4.268;2023-04-15T09:12:45;101428.38;;;18.81;100.00
76424;BME280;65257;52.104;4.268;2023-04-15T09:15:11;101439.59;;;18.15;100.00
76424;BME280;65257;52.104;4.268;2023-04-15T09:17:42;101432.41;;;18.56;99.02
76424;BME280;65257;52.104;4.268;2023-04-15T09:20:16;101438.94;;;18.99;89.30
76424;BME280;65257;52.104;4.268;2023-04-15T09:22:44;101440.13;;;19.31;85.96
76424;BME280;65257;52.104;4.268;2023-04-15T09:27:53;101452.28;;;18.56;91.90
76424;BME280;65257;52.104;4.268;2023-04-15T09:30:19;101464.88;;;18.30;96.39
76424;BME280;65257;52.104;4.268;2023-04-15T09:33:04;101465.13;;;19.23;88.70
76424;BME280;65257;52.104;4.268;2023-04-15T09:35:33;101467.69;;;18.47;83.47
76424;BME280;65257;52.104;4.268;2023-04-15T09:38:08;101473.75;;;18.47;84.61
76424;BME280;65257;52.104;4.268;2023-04-15T09:40:39;101484.88;;;19.09;65.84
76424;BME280;65257;52.104;4.268;2023-04-15T09:43:08;101491.13;;;19.29;65.37
76424;BME280;65257;52.104;4.268;2023-04-15T09:45:48;101488.66;;;18.03;82.23
76424;BME280;65257;52.104;4.268;2023-04-15T09:48:24;101495.53;;;18.03;89.15
76424;BME280;65257;52.104;4.268;2023-04-15T09:51:00;101497.84;;;17.35;100.00
76424;BME280;65257;52.104;4.268;2023-04-15T09:53:26;101502.69;;;17.17;100.00
76424;BME280;65257;52.104;4.268;2023-04-15T09:55:57;101508.59;;;17.12;100.00
76424;BME280;65257;52.104;4.268;2023-04-15T09:58:30;101512.28;;;17.26;100.00
76424;BME280;65257;52.104;4.268;2023-04-15T10:00:58;101509.41;;;17.54;100.00
76424;BME280;65257;52.104;4.268;2023-04-15T10:03:42;101517.03;;;17.02;100.00
76424;BME280;65257;52.104;4.268;2023-04-15T10:06:09;101512.47;;;17.35;100.00
76424;BME280;65257;52.104;4.268;2023-04-15T10:08:35;101527.88;;;16.85;100.00
76424;BME280;65257;52.104;4.268;2023-04-15T10:11:05;101530.09;;;16.67;100.00
76424;BME280;65257;52.104;4.268;2023-04-15T10:13:43;101524.81;;;16.61;100.00
76424;BME280;65257;52.104;4.268;2023-04-15T10:16:14;101530.69;;;16.95;100.00
76424;BME280;65257;52.104;4.268;2023-04-15T10:18:52;101535.06;;;16.58;100.00
76424;BME280;65257;52.104;4.268;2023-04-15T10:21:39;101538.63;;;16.63;100.00
76424;BME280;65257;52.104;4.268;2023-04-15T10:24:05;101537.94;;;16.35;100.00
76424;BME280;65257;52.104;4.268;2023-04-15T10:26:33;101542.66;;;16.15;100.00
76424;BME280;65257;52.104;4.268;2023-04-15T10:29:00;101545.41;;;16.22;100.00
76424;BME280;65257;52.104;4.268;2023-04-15T10:31:27;101534.81;;;16.86;100.00
76424;BME280;65257;52.104;4.268;2023-04-15T10:33:55;101548.88;;;16.60;100.00
76424;BME280;65257;52.104;4.268;2023-04-15T10:36:21;101549.97;;;16.34;100.00
76424;BME280;65257;52.104;4.268;2023-04-15T10:38:47;101556.81;;;16.68;100.00
76424;BME280;65257;52.104;4.268;2023-04-15T10:41:20;101558.72;;;16.76;100.00
76424;BME280;65257;52.104;4.268;2023-04-15T10:43:54;101560.28;;;16.68;100.00
76424;BME280;65257;52.104;4.268;2023-04-15T10:46:39;101569.31;;;16.87;100.00
76424;BME280;65257;52.104;4.268;2023-04-15T10:49:14;101566.06;;;16.58;100.00
76424;BME280;65257;52.104;4.268;2023-04-15T10:51:41;101570.09;;;16.47;100.00
76424;BME280;65257;52.104;4.268;2023-04-15T10:54:15;101573.88;;;16.25;100.00
76424;BME280;65257;52.104;4.268;2023-04-15T10:57:08;101572.16;;;16.26;100.00
76424;BME280;65257;52.104;4.268;2023-04-15T11:02:45;101581.03;;;15.37;100.00
76424;BME280;65257;52.104;4.268;2023-04-15T11:05:16;101580.03;;;15.32;100.00
76424;BME280;65257;52.104;4.268;2023-04-15T11:08:02;101577.94;;;15.19;100.00
76424;BME280;65257;52.104;4.268;2023-04-15T11:15:48;101607.13;;;14.62;100.00
76424;BME280;65257;52.104;4.268;2023-04-15T11:18:39;101611.72;;;14.43;100.00
76424;BME280;65257;52.104;4.268;2023-04-15T11:21:09;101609.38;;;14.51;100.00
76424;BME280;65257;52.104;4.268;2023-04-15T11:23:45;101615.13;;;14.43;100.00
76424;BME280;65257;52.104;4.268;2023-04-15T11:26:15;101615.94;;;14.41;100.00
76424;BME280;65257;52.104;4.268;2023-04-15T11:28:45;101613.13;;;14.61;100.00
76424;BME280;65257;52.104;4.268;2023-04-15T11:31:16;101625.69;;;14.52;100.00
76424;BME280;65257;52.104;4.268;2023-04-15T11:33:52;101628.41;;;14.56;100.00
76424;BME280;65257;52.104;4.268;2023-04-15T11:36:31;101640.66;;;14.36;100.00
76424;BME280;65257;52.104;4.268;2023-04-15T11:38:57;101648.06;;;14.02;100.00
76424;BME280;65257;52.104;4.268;2023-04-15T11:41:23;101645.81;;;14.11;100.00
76424;BME280;65257;52.104;4.268;2023-04-15T11:43:52;101638.22;;;14.41;100.00
76424;BME280;65257;52.104;4.268;2023-04-15T11:46:18;101654.03;;;14.26;100.00
76424;BME280;65257;52.104;4.268;2023-04-15T11:48:46;101644.41;;;14.73;100.00
76424;BME280;65257;52.104;4.268;2023-04-15T11:51:19;101652.25;;;14.76;100.00
76424;BME280;65257;52.104;4.268;2023-04-15T11:53:51;101648.00;;;15.06;100.00
76424;BME280;65257;52.104;4.268;2023-04-15T11:56:24;101649.13;;;14.86;100.00
76424;BME280;65257;52.104;4.268;2023-04-15T11:58:57;101654.84;;;15.04;100.00
76424;BME280;65257;52.104;4.268;2023-04-15T12:01:37;101654.19;;;14.83;100.00
76424;BME280;65257;52.104;4.268;2023-04-15T12:04:16;101664.38;;;15.36;100.00
76424;BME280;65257;52.104;4.268;2023-04-15T12:06:49;101660.47;;;15.21;100.00
76424;BME280;65257;52.104;4.268;2023-04-15T12:09:15;101666.59;;;14.68;100.00
76424;BME280;65257;52.104;4.268;2023-04-15T12:11:44;101678.09;;;14.79;100.00
76424;BME280;65257;52.104;4.268;2023-04-15T12:14:31;101684.41;;;14.11;100.00
76424;BME280;65257;52.104;4.268;2023-04-15T12:17:01;101687.69;;;14.07;100.00
76424;BME280;65257;52.104;4.268;2023-04-15T12:19:41;101699.50;;;14.02;100.00
76424;BME280;65257;52.104;4.268;2023-04-15T12:22:09;101699.22;;;14.18;100.00
76424;BME280;65257;52.104;4.268;2023-04-15T12:24:39;101700.84;;;14.15;100.00
76424;BME280;65257;52.104;4.268;2023-04-15T12:27:06;101706.13;;;13.94;100.00
76424;BME280;65257;52.104;4.268;2023-04-15T12:29:37;101708.28;;;13.60;100.00
76424;BME280;65257;52.104;4.268;2023-04-15T12:34:49;101714.50;;;13.43;100.00
76424;BME280;65257;52.104;4.268;2023-04-15T12:37:15;101713.31;;;13.57;100.00
76424;BME280;65257;52.104;4.268;2023-04-15T12:39:46;101716.38;;;13.47;100.00
76424;BME280;65257;52.104;4.268;2023-04-15T12:42:16;101717.91;;;13.42;100.00
76424;BME280;65257;52.104;4.268;2023-04-15T12:44:45;101722.47;;;13.27;100.00
76424;BME280;65257;52.104;4.268;2023-04-15T12:47:11;101727.13;;;13.14;100.00
76424;BME280;65257;52.104;4.268;2023-04-15T12:49:37;101733.63;;;13.27;100.00
76424;BME280;65257;52.104;4.268;2023-04-15T12:52:06;101734.00;;;13.15;100.00
76424;BME280;65257;52.104;4.268;2023-04-15T12:54:31;101742.00;;;13.02;100.00
76424;BME280;65257;52.104;4.268;2023-04-15T12:57:03;101747.16;;;13.23;100.00
76424;BME280;65257;52.104;4.268;2023-04-15T12:59:28;101744.13;;;13.33;100.00
76424;BME280;65257;52.104;4.268;2023-04-15T13:01:54;101743.00;;;13.27;100.00
76424;BME280;65257;52.104;4.268;2023-04-15T13:04:21;101756.47;;;13.20;100.00
76424;BME280;65257;52.104;4.268;2023-04-15T13:06:47;101750.84;;;13.30;100.00